createdAt,value
2019-02-24T00:02:04.626Z,103214.34
2019-02-24T00:07:10.291Z,103212.32
2019-02-24T00:12:15.673Z,103204.55
2019-02-24T00:17:21.086Z,103211.31
2019-02-24T00:22:26.725Z,103217.15
2019-02-24T00:27:32.242Z,103222.50
2019-02-24T00:32:37.669Z,103219.20
2019-02-24T00:37:43.297Z,103224.95
2019-02-24T00:42:48.840Z,103219.49
2019-02-24T00:47:54.645Z,103215.39
2019-02-24T00:53:00.075Z,103215.25
2019-02-24T00:58:05.486Z,103217.43
2019-02-24T01:03:11.259Z,103205.10
2019-02-24T01:08:16.845Z,103220.03
2019-02-24T01:13:22.640Z,103209.91
2019-02-24T01:18:28.225Z,103208.57
2019-02-24T01:23:33.704Z,103201.97
2019-02-24T01:28:39.541Z,103194.99
2019-02-24T01:33:45.007Z,103199.30
2019-02-24T01:38:50.499Z,103197.62
2019-02-24T01:43:56.071Z,103193.44
2019-02-24T01:49:01.439Z,103185.16
2019-02-24T01:54:06.993Z,103182.20
2019-02-24T01:59:12.361Z,103174.20
2019-02-24T02:04:17.864Z,103177.91
2019-02-24T02:09:23.359Z,103169.02
2019-02-24T02:14:29.215Z,103165.22
2019-02-24T02:19:34.697Z,103159.05
2019-02-24T02:24:40.243Z,103153.02
2019-02-24T02:29:45.853Z,103152.71
2019-02-24T02:34:51.335Z,103153.98
2019-02-24T02:39:56.822Z,103144.52
2019-02-24T02:45:02.330Z,103144.20
2019-02-24T02:50:07.867Z,103145.11
2019-02-24T02:55:13.398Z,103136.19
2019-02-24T03:00:35.489Z,103135.95
2019-02-24T03:05:44.073Z,103140.91
2019-02-24T03:10:49.757Z,103141.48
2019-02-24T03:15:55.576Z,103150.78
2019-02-24T03:21:01.044Z,103144.83
2019-02-24T03:26:06.597Z,103146.58
2019-02-24T03:31:12.176Z,103153.93
2019-02-24T03:36:17.658Z,103155.67
2019-02-24T03:41:23.050Z,103154.66
2019-02-24T03:46:28.555Z,103163.90
2019-02-24T03:51:34.248Z,103164.42
2019-02-24T03:56:40.072Z,103169.84
2019-02-24T04:01:45.601Z,103172.08
2019-02-24T04:06:51.264Z,103168.42
2019-02-24T04:11:56.906Z,103168.11
2019-02-24T04:17:02.371Z,103173.62
2019-02-24T04:22:07.450Z,103176.24
2019-02-24T04:27:12.855Z,103182.27
2019-02-24T04:32:18.351Z,103189.92
2019-02-24T04:37:23.835Z,103189.30
2019-02-24T04:42:29.408Z,103189.52
2019-02-24T04:47:35.039Z,103193.18
2019-02-24T04:52:40.533Z,103196.69
2019-02-24T04:57:46.042Z,103208.39
2019-02-24T05:02:51.439Z,103208.95
2019-02-24T05:07:56.838Z,103206.39
2019-02-24T05:13:02.455Z,103216.34
2019-02-24T05:18:07.842Z,103209.97
2019-02-24T05:23:13.341Z,103208.55
2019-02-24T05:28:18.742Z,103216.36
2019-02-24T05:33:24.195Z,103213.47
2019-02-24T05:38:29.633Z,103210.38
2019-02-24T05:43:35.164Z,103211.11
2019-02-24T05:48:40.526Z,103208.88
2019-02-24T05:53:45.960Z,103202.13
2019-02-24T05:58:51.534Z,103203.31
2019-02-24T06:03:57.320Z,103213.63
2019-02-24T06:09:02.886Z,103214.95
2019-02-24T06:14:08.497Z,103223.04
2019-02-24T06:19:14.135Z,103211.29
2019-02-24T06:24:19.622Z,103208.36
2019-02-24T06:29:25.177Z,103219.78
2019-02-24T06:34:30.645Z,103222.98
2019-02-24T06:39:36.166Z,103222.03
2019-02-24T06:44:41.756Z,103221.40
2019-02-24T06:49:47.136Z,103222.08
2019-02-24T06:54:52.607Z,103233.82
2019-02-24T06:59:58.263Z,103230.50
2019-02-24T07:05:03.853Z,103236.05
2019-02-24T07:10:09.478Z,103242.03
2019-02-24T07:15:14.904Z,103254.45
2019-02-24T07:20:20.532Z,103255.94
2019-02-24T07:25:26.015Z,103248.71
2019-02-24T07:30:31.534Z,103254.87
2019-02-24T07:35:37.015Z,103253.66
2019-02-24T07:40:42.476Z,103247.05
2019-02-24T07:45:47.894Z,103240.52
2019-02-24T07:50:53.339Z,103209.77
2019-02-24T07:55:58.886Z,103199.13
2019-02-24T08:01:04.505Z,103192.50
2019-02-24T08:06:10.138Z,103196.62
2019-02-24T08:11:15.570Z,103197.88
2019-02-24T08:16:20.980Z,103201.32
2019-02-24T08:21:26.668Z,103185.30
2019-02-24T08:26:32.359Z,103174.67
2019-02-24T08:31:37.962Z,103179.16
2019-02-24T08:36:43.447Z,103176.02
2019-02-24T08:41:48.849Z,103175.36
2019-02-24T08:46:54.721Z,103172.68
2019-02-24T08:52:00.293Z,103167.59
2019-02-24T08:57:05.885Z,103171.44
2019-02-24T09:02:11.492Z,103163.53
2019-02-24T09:07:16.877Z,103174.20
2019-02-24T09:12:22.355Z,103166.63
2019-02-24T09:17:27.922Z,103165.81
2019-02-24T09:22:33.311Z,103162.88
2019-02-24T09:27:39.033Z,103162.59
2019-02-24T09:32:44.521Z,103161.13
2019-02-24T09:37:50.067Z,103174.23
2019-02-24T09:42:55.528Z,103178.71
2019-02-24T09:48:01.231Z,103181.95
2019-02-24T09:53:06.808Z,103190.20
2019-02-24T09:58:12.202Z,103190.02
2019-02-24T10:03:17.656Z,103202.29
2019-02-24T10:08:23.219Z,103213.78
2019-02-24T10:13:28.645Z,103227.83
2019-02-24T10:18:34.102Z,103239.44
2019-02-24T10:23:39.521Z,103255.08
2019-02-24T10:28:44.963Z,103269.68
2019-02-24T10:33:50.480Z,103275.58
2019-02-24T10:38:56.045Z,103289.27
2019-02-24T10:44:01.844Z,103290.98
2019-02-24T10:49:07.329Z,103287.05
2019-02-24T10:54:12.861Z,103280.48
2019-02-24T10:59:18.360Z,103272.12
2019-02-24T11:04:23.796Z,103273.86
2019-02-24T11:09:30.472Z,103262.95
2019-02-24T11:14:36.083Z,103252.16
2019-02-24T11:19:41.474Z,103251.05
2019-02-24T11:24:47.011Z,103258.86
2019-02-24T11:29:52.455Z,103254.51
2019-02-24T11:34:57.993Z,103244.81
2019-02-24T11:40:03.990Z,103248.95
2019-02-24T11:45:09.540Z,103236.34
2019-02-24T11:50:14.950Z,103232.55
2019-02-24T11:55:20.504Z,103222.80
2019-02-24T12:00:25.912Z,103213.55
2019-02-24T12:05:31.326Z,103216.84
2019-02-24T12:10:36.733Z,103216.89
2019-02-24T12:15:42.268Z,103214.13
2019-02-24T12:20:47.751Z,103212.39
2019-02-24T12:25:53.315Z,103206.23
2019-02-24T12:30:58.743Z,103192.95
2019-02-24T12:36:04.864Z,103192.45
2019-02-24T12:41:10.344Z,103185.70
2019-02-24T12:46:15.769Z,103174.98
2019-02-24T12:51:21.448Z,103185.45
2019-02-24T12:56:27.046Z,103176.38
2019-02-24T13:01:32.614Z,103169.07
2019-02-24T13:06:38.083Z,103162.98
2019-02-24T13:11:43.672Z,103163.25
2019-02-24T13:16:49.110Z,103155.17
2019-02-24T13:21:54.621Z,103155.33
2019-02-24T13:27:00.161Z,103153.34
2019-02-24T13:32:14.501Z,103148.73
2019-02-24T13:37:13.136Z,103130.55
2019-02-24T13:42:18.578Z,103126.97
2019-02-24T13:47:24.055Z,103131.70
2019-02-24T13:52:29.450Z,103131.20
2019-02-24T13:57:34.876Z,103119.59
2019-02-24T14:02:40.481Z,103107.88
2019-02-24T14:07:46.310Z,103091.31
2019-02-24T14:12:51.835Z,103095.34
2019-02-24T14:17:57.420Z,103095.89
2019-02-24T14:23:02.834Z,103092.66
2019-02-24T14:28:08.460Z,103087.43
2019-02-24T14:33:14.175Z,103083.58
2019-02-24T14:38:19.691Z,103094.53
2019-02-24T14:43:25.071Z,103100.14
2019-02-24T14:48:30.574Z,103091.94
2019-02-24T14:53:36.035Z,103091.45
2019-02-24T14:58:41.498Z,103094.48
2019-02-24T15:03:47.081Z,103100.38
2019-02-24T15:08:52.637Z,103103.72
2019-02-24T15:13:58.400Z,103100.33
2019-02-24T15:19:03.981Z,103092.83
2019-02-24T15:24:09.455Z,103094.84
2019-02-24T15:29:15.200Z,103092.38
2019-02-24T15:34:20.717Z,103082.11
2019-02-24T15:39:26.195Z,103084.17
2019-02-24T15:44:31.754Z,103077.66
2019-02-24T15:49:37.534Z,103079.48
2019-02-24T15:54:43.520Z,103080.02
2019-02-24T15:59:49.018Z,103077.66
2019-02-24T16:04:54.507Z,103085.13
2019-02-24T16:10:00.273Z,103084.64
2019-02-24T16:15:07.236Z,103085.80
2019-02-24T16:20:16.457Z,103085.59
2019-02-24T16:25:22.182Z,103088.80
2019-02-24T16:30:27.960Z,103087.48
2019-02-24T16:35:33.524Z,103102.09
2019-02-24T16:40:39.262Z,103100.66
2019-02-24T16:45:44.697Z,103099.27
2019-02-24T16:50:50.195Z,103097.99
2019-02-24T16:55:55.708Z,103097.05
2019-02-24T17:01:01.226Z,103098.13
2019-02-24T17:06:06.665Z,103089.11
2019-02-24T17:11:12.438Z,103095.13
2019-02-24T17:16:18.017Z,103098.48
2019-02-24T17:21:23.693Z,103102.19
2019-02-24T17:26:29.242Z,103108.39
2019-02-24T17:31:34.929Z,103120.68
2019-02-24T17:36:40.684Z,103129.20
2019-02-24T17:41:46.557Z,103130.97
2019-02-24T17:46:52.017Z,103131.19
2019-02-24T17:51:57.663Z,103134.91
2019-02-24T17:57:03.168Z,103132.55
2019-02-24T18:02:08.739Z,103140.36
2019-02-24T18:07:14.254Z,103135.80
2019-02-24T18:12:19.718Z,103136.86
2019-02-24T18:17:25.354Z,103149.91
2019-02-24T18:22:30.903Z,103156.51
2019-02-24T18:27:36.377Z,103155.77
2019-02-24T18:32:41.855Z,103145.50
2019-02-24T18:37:47.324Z,103140.98
2019-02-24T18:42:59.726Z,103148.87
2019-02-24T18:47:59.882Z,103148.78
2019-02-24T18:53:06.474Z,103146.69
2019-02-24T18:58:12.283Z,103142.20
2019-02-24T19:03:17.769Z,103141.06
2019-02-24T19:08:23.349Z,103147.39
2019-02-24T19:13:29.266Z,103140.93
2019-02-24T19:18:34.926Z,103130.60
2019-02-24T19:23:40.470Z,103129.61
2019-02-24T19:28:45.849Z,103130.25
2019-02-24T19:33:53.063Z,103132.39
2019-02-24T19:38:58.616Z,103128.84
2019-02-24T19:44:04.255Z,103124.82
2019-02-24T19:49:09.722Z,103139.30
2019-02-24T19:54:15.177Z,103148.04
2019-02-24T19:59:20.718Z,103162.66
2019-02-24T20:04:26.311Z,103169.39
2019-02-24T20:09:31.778Z,103171.48
2019-02-24T20:14:37.340Z,103178.19
2019-02-24T20:19:42.814Z,103186.70
2019-02-24T20:24:48.298Z,103195.96
2019-02-24T20:29:53.799Z,103202.48
2019-02-24T20:34:59.385Z,103205.81
2019-02-24T20:40:05.002Z,103214.89
2019-02-24T20:45:11.920Z,103220.58
2019-02-24T20:50:18.805Z,103229.59
2019-02-24T20:55:24.206Z,103227.81
2019-02-24T21:00:37.138Z,103236.84
2019-02-24T21:05:42.587Z,103231.52
2019-02-24T21:10:47.989Z,103233.16
2019-02-24T21:15:53.424Z,103233.80
2019-02-24T21:20:58.852Z,103239.93
2019-02-24T21:26:04.505Z,103241.91
2019-02-24T21:31:10.064Z,103243.27
2019-02-24T21:36:15.446Z,103243.94
2019-02-24T21:41:20.956Z,103246.42
2019-02-24T21:46:26.582Z,103238.34
2019-02-24T21:51:31.991Z,103227.83
2019-02-24T21:56:37.395Z,103216.23
2019-02-24T22:01:42.789Z,103220.42
2019-02-24T22:06:48.263Z,103220.26
2019-02-24T22:11:53.712Z,103225.52
2019-02-24T22:16:59.152Z,103222.25
2019-02-24T22:22:04.590Z,103223.92
2019-02-24T22:27:10.169Z,103222.48
2019-02-24T22:32:15.791Z,103211.45
2019-02-24T22:37:27.880Z,103214.45
2019-02-24T22:42:35.930Z,103212.22
2019-02-24T22:47:45.282Z,103214.73
2019-02-24T22:52:53.675Z,103212.65
2019-02-24T22:58:00.468Z,103202.23
2019-02-24T23:03:09.005Z,103196.33
2019-02-24T23:08:15.155Z,103196.95
2019-02-24T23:13:20.554Z,103186.61
2019-02-24T23:18:25.924Z,103191.72
2019-02-24T23:23:31.560Z,103197.07
2019-02-24T23:28:37.105Z,103211.75
2019-02-24T23:33:42.459Z,103217.52
2019-02-24T23:38:48.339Z,103221.57
2019-02-24T23:43:53.859Z,103216.62
2019-02-24T23:48:59.400Z,103216.29
2019-02-24T23:54:04.812Z,103216.19
2019-02-24T23:59:10.265Z,103211.38
